sensor_id;sensor_type;location;lat;lon;timestamp;P1;durP1;ratioP1;P2;durP2;ratioP2
54679;SDS011;40578;53.178;5.846;2023-06-14T00:00:15;4.37;;;2.00;;
54679;SDS011;40578;53.178;5.846;2023-06-14T00:02:41;2.80;;;1.73;;
54679;SDS011;40578;53.178;5.846;2023-06-14T00:05:07;3.63;;;1.87;;
54679;SDS011;40578;53.178;5.846;2023-06-14T00:07:37;4.70;;;1.98;;
54679;SDS011;40578;53.178;5.846;2023-06-14T00:10:07;8.18;;;2.40;;
54679;SDS011;40578;53.178;5.846;2023-06-14T00:12:33;7.25;;;2.28;;
54679;SDS011;40578;53.178;5.846;2023-06-14T00:15:00;4.93;;;2.15;;
54679;SDS011;40578;53.178;5.846;2023-06-14T00:17:28;4.68;;;1.88;;
54679;SDS011;40578;53.178;5.846;2023-06-14T00:19:57;5.75;;;2.35;;
54679;SDS011;40578;53.178;5.846;2023-06-14T00:22:24;4.03;;;2.10;;
54679;SDS011;40578;53.178;5.846;2023-06-14T00:24:53;4.85;;;2.00;;
54679;SDS011;40578;53.178;5.846;2023-06-14T00:27:19;5.95;;;2.00;;
54679;SDS011;40578;53.178;5.846;2023-06-14T00:29:44;5.33;;;2.13;;
54679;SDS011;40578;53.178;5.846;2023-06-14T00:32:10;6.27;;;2.37;;
54679;SDS011;40578;53.178;5.846;2023-06-14T00:34:36;4.73;;;1.90;;
54679;SDS011;40578;53.178;5.846;2023-06-14T00:37:01;4.07;;;2.30;;
54679;SDS011;40578;53.178;5.846;2023-06-14T00:39:27;7.30;;;1.90;;
54679;SDS011;40578;53.178;5.846;2023-06-14T00:41:53;8.23;;;2.50;;
54679;SDS011;40578;53.178;5.846;2023-06-14T00:44:18;5.03;;;1.70;;
54679;SDS011;40578;53.178;5.846;2023-06-14T00:46:47;6.33;;;2.20;;
54679;SDS011;40578;53.178;5.846;2023-06-14T00:49:16;6.05;;;2.00;;
54679;SDS011;40578;53.178;5.846;2023-06-14T00:51:42;3.92;;;2.10;;
54679;SDS011;40578;53.178;5.846;2023-06-14T00:54:08;6.93;;;2.20;;
54679;SDS011;40578;53.178;5.846;2023-06-14T00:56:37;8.32;;;1.90;;
54679;SDS011;40578;53.178;5.846;2023-06-14T00:59:04;7.88;;;1.90;;
54679;SDS011;40578;53.178;5.846;2023-06-14T01:01:31;5.00;;;2.35;;
54679;SDS011;40578;53.178;5.846;2023-06-14T01:03:58;6.85;;;2.25;;
54679;SDS011;40578;53.178;5.846;2023-06-14T01:07:07;7.35;;;1.92;;
54679;SDS011;40578;53.178;5.846;2023-06-14T01:12:04;5.18;;;2.10;;
54679;SDS011;40578;53.178;5.846;2023-06-14T01:14:36;3.40;;;1.63;;
54679;SDS011;40578;53.178;5.846;2023-06-14T01:17:04;4.10;;;1.70;;
54679;SDS011;40578;53.178;5.846;2023-06-14T01:19:33;5.05;;;2.20;;
54679;SDS011;40578;53.178;5.846;2023-06-14T01:22:00;4.97;;;1.70;;
54679;SDS011;40578;53.178;5.846;2023-06-14T01:24:27;3.83;;;1.83;;
54679;SDS011;40578;53.178;5.846;2023-06-14T01:26:56;3.80;;;1.80;;
54679;SDS011;40578;53.178;5.846;2023-06-14T01:29:23;4.50;;;1.75;;
54679;SDS011;40578;53.178;5.846;2023-06-14T01:31:50;4.43;;;1.90;;
54679;SDS011;40578;53.178;5.846;2023-06-14T01:34:16;5.00;;;1.73;;
54679;SDS011;40578;53.178;5.846;2023-06-14T01:36:43;5.87;;;2.07;;
54679;SDS011;40578;53.178;5.846;2023-06-14T01:39:11;3.60;;;1.60;;
54679;SDS011;40578;53.178;5.846;2023-06-14T01:41:40;5.15;;;1.95;;
54679;SDS011;40578;53.178;5.846;2023-06-14T01:44:06;4.47;;;1.98;;
54679;SDS011;40578;53.178;5.846;2023-06-14T01:46:33;4.72;;;1.73;;
54679;SDS011;40578;53.178;5.846;2023-06-14T01:48:59;3.40;;;1.65;;
54679;SDS011;40578;53.178;5.846;2023-06-14T01:51:25;4.82;;;2.05;;
54679;SDS011;40578;53.178;5.846;2023-06-14T01:53:50;3.60;;;2.17;;
54679;SDS011;40578;53.178;5.846;2023-06-14T01:56:16;4.10;;;1.63;;
54679;SDS011;40578;53.178;5.846;2023-06-14T01:58:42;2.90;;;1.88;;
54679;SDS011;40578;53.178;5.846;2023-06-14T02:01:08;3.83;;;1.75;;
54679;SDS011;40578;53.178;5.846;2023-06-14T02:03:34;4.00;;;2.10;;
54679;SDS011;40578;53.178;5.846;2023-06-14T02:05:59;4.07;;;2.00;;
54679;SDS011;40578;53.178;5.846;2023-06-14T02:08:25;3.25;;;1.85;;
54679;SDS011;40578;53.178;5.846;2023-06-14T02:10:51;8.73;;;2.30;;
54679;SDS011;40578;53.178;5.846;2023-06-14T02:13:17;5.40;;;1.77;;
54679;SDS011;40578;53.178;5.846;2023-06-14T02:15:43;5.93;;;2.10;;
54679;SDS011;40578;53.178;5.846;2023-06-14T02:18:09;3.30;;;2.00;;
54679;SDS011;40578;53.178;5.846;2023-06-14T02:20:35;3.88;;;1.90;;
54679;SDS011;40578;53.178;5.846;2023-06-14T02:23:01;4.30;;;1.77;;
54679;SDS011;40578;53.178;5.846;2023-06-14T02:25:27;3.87;;;2.00;;
54679;SDS011;40578;53.178;5.846;2023-06-14T02:27:53;6.30;;;2.20;;
54679;SDS011;40578;53.178;5.846;2023-06-14T02:30:20;3.85;;;2.10;;
54679;SDS011;40578;53.178;5.846;2023-06-14T02:32:45;4.53;;;2.20;;
54679;SDS011;40578;53.178;5.846;2023-06-14T02:35:13;5.28;;;2.00;;
54679;SDS011;40578;53.178;5.846;2023-06-14T02:37:39;4.88;;;1.88;;
54679;SDS011;40578;53.178;5.846;2023-06-14T02:40:06;5.68;;;2.03;;
54679;SDS011;40578;53.178;5.846;2023-06-14T02:42:33;5.25;;;2.03;;
54679;SDS011;40578;53.178;5.846;2023-06-14T02:44:58;2.80;;;1.87;;
54679;SDS011;40578;53.178;5.846;2023-06-14T02:47:24;4.67;;;2.10;;
54679;SDS011;40578;53.178;5.846;2023-06-14T02:49:50;3.63;;;2.10;;
54679;SDS011;40578;53.178;5.846;2023-06-14T02:52:16;4.50;;;2.10;;
54679;SDS011;40578;53.178;5.846;2023-06-14T02:54:42;6.27;;;2.13;;
54679;SDS011;40578;53.178;5.846;2023-06-14T02:57:07;4.40;;;2.00;;
54679;SDS011;40578;53.178;5.846;2023-06-14T02:59:34;3.37;;;2.13;;
54679;SDS011;40578;53.178;5.846;2023-06-14T03:04:26;4.13;;;2.00;;
54679;SDS011;40578;53.178;5.846;2023-06-14T03:06:52;3.83;;;2.20;;
54679;SDS011;40578;53.178;5.846;2023-06-14T03:09:18;6.80;;;2.03;;
54679;SDS011;40578;53.178;5.846;2023-06-14T03:11:44;5.72;;;2.40;;
54679;SDS011;40578;53.178;5.846;2023-06-14T03:14:10;5.43;;;2.43;;
54679;SDS011;40578;53.178;5.846;2023-06-14T03:16:36;7.03;;;2.60;;
54679;SDS011;40578;53.178;5.846;2023-06-14T03:19:04;3.63;;;2.20;;
54679;SDS011;40578;53.178;5.846;2023-06-14T03:21:30;4.22;;;2.42;;
54679;SDS011;40578;53.178;5.846;2023-06-14T03:23:56;5.10;;;2.43;;
54679;SDS011;40578;53.178;5.846;2023-06-14T03:26:21;3.80;;;2.40;;
54679;SDS011;40578;53.178;5.846;2023-06-14T03:28:47;4.43;;;2.70;;
54679;SDS011;40578;53.178;5.846;2023-06-14T03:31:16;5.22;;;2.65;;
54679;SDS011;40578;53.178;5.846;2023-06-14T03:33:42;4.47;;;2.17;;
54679;SDS011;40578;53.178;5.846;2023-06-14T03:36:08;4.18;;;2.30;;
54679;SDS011;40578;53.178;5.846;2023-06-14T03:38:34;4.67;;;2.43;;
54679;SDS011;40578;53.178;5.846;2023-06-14T03:41:00;4.55;;;2.70;;
54679;SDS011;40578;53.178;5.846;2023-06-14T03:43:26;4.43;;;2.30;;
54679;SDS011;40578;53.178;5.846;2023-06-14T03:45:52;7.65;;;2.97;;
54679;SDS011;40578;53.178;5.846;2023-06-14T03:48:18;6.23;;;3.07;;
54679;SDS011;40578;53.178;5.846;2023-06-14T03:50:43;4.33;;;2.57;;
54679;SDS011;40578;53.178;5.846;2023-06-14T03:53:09;5.63;;;2.70;;
54679;SDS011;40578;53.178;5.846;2023-06-14T03:55:35;6.43;;;2.67;;
54679;SDS011;40578;53.178;5.846;2023-06-14T03:58:02;6.38;;;2.72;;
54679;SDS011;40578;53.178;5.846;2023-06-14T04:00:29;8.02;;;2.55;;
54679;SDS011;40578;53.178;5.846;2023-06-14T04:02:55;5.40;;;2.90;;
54679;SDS011;40578;53.178;5.846;2023-06-14T04:05:20;4.80;;;3.27;;
54679;SDS011;40578;53.178;5.846;2023-06-14T04:07:46;6.37;;;3.13;;
54679;SDS011;40578;53.178;5.846;2023-06-14T04:10:13;5.85;;;2.60;;
54679;SDS011;40578;53.178;5.846;2023-06-14T04:12:40;6.32;;;2.92;;
54679;SDS011;40578;53.178;5.846;2023-06-14T04:15:06;4.22;;;2.38;;
54679;SDS011;40578;53.178;5.846;2023-06-14T04:17:33;4.35;;;3.05;;
54679;SDS011;40578;53.178;5.846;2023-06-14T04:19:59;5.88;;;2.65;;
54679;SDS011;40578;53.178;5.846;2023-06-14T04:22:26;5.47;;;3.00;;
54679;SDS011;40578;53.178;5.846;2023-06-14T04:24:56;4.10;;;2.58;;
54679;SDS011;40578;53.178;5.846;2023-06-14T04:27:22;7.78;;;2.85;;
54679;SDS011;40578;53.178;5.846;2023-06-14T04:29:51;5.72;;;2.80;;
54679;SDS011;40578;53.178;5.846;2023-06-14T04:32:28;6.35;;;2.80;;
54679;SDS011;40578;53.178;5.846;2023-06-14T04:35:05;7.40;;;2.88;;
54679;SDS011;40578;53.178;5.846;2023-06-14T04:37:32;6.32;;;2.75;;
54679;SDS011;40578;53.178;5.846;2023-06-14T04:39:58;6.75;;;2.90;;
54679;SDS011;40578;53.178;5.846;2023-06-14T04:42:24;5.43;;;3.10;;
54679;SDS011;40578;53.178;5.846;2023-06-14T04:44:50;6.43;;;2.97;;
54679;SDS011;40578;53.178;5.846;2023-06-14T04:47:20;5.07;;;2.83;;
54679;SDS011;40578;53.178;5.846;2023-06-14T04:49:46;5.63;;;2.88;;
54679;SDS011;40578;53.178;5.846;2023-06-14T04:52:11;4.27;;;2.53;;
54679;SDS011;40578;53.178;5.846;2023-06-14T04:54:38;5.68;;;3.10;;
54679;SDS011;40578;53.178;5.846;2023-06-14T04:57:07;5.70;;;3.00;;
54679;SDS011;40578;53.178;5.846;2023-06-14T04:59:34;5.25;;;3.17;;
54679;SDS011;40578;53.178;5.846;2023-06-14T05:02:00;5.65;;;2.97;;
54679;SDS011;40578;53.178;5.846;2023-06-14T05:04:27;5.60;;;3.20;;
54679;SDS011;40578;53.178;5.846;2023-06-14T05:06:53;5.60;;;3.22;;
54679;SDS011;40578;53.178;5.846;2023-06-14T05:09:22;6.47;;;3.17;;
54679;SDS011;40578;53.178;5.846;2023-06-14T05:11:48;4.57;;;2.73;;
54679;SDS011;40578;53.178;5.846;2023-06-14T05:14:15;5.97;;;3.22;;
54679;SDS011;40578;53.178;5.846;2023-06-14T05:16:42;6.07;;;3.40;;
54679;SDS011;40578;53.178;5.846;2023-06-14T05:19:08;4.85;;;3.10;;
54679;SDS011;40578;53.178;5.846;2023-06-14T05:21:33;5.28;;;3.20;;
54679;SDS011;40578;53.178;5.846;2023-06-14T05:23:59;5.43;;;2.80;;
54679;SDS011;40578;53.178;5.846;2023-06-14T05:26:26;5.33;;;3.30;;
54679;SDS011;40578;53.178;5.846;2023-06-14T05:28:58;7.13;;;3.30;;
54679;SDS011;40578;53.178;5.846;2023-06-14T05:31:25;4.97;;;2.88;;
54679;SDS011;40578;53.178;5.846;2023-06-14T05:33:52;6.13;;;3.00;;
54679;SDS011;40578;53.178;5.846;2023-06-14T05:36:18;6.50;;;3.00;;
54679;SDS011;40578;53.178;5.846;2023-06-14T05:38:46;5.88;;;3.22;;
54679;SDS011;40578;53.178;5.846;2023-06-14T05:41:11;5.40;;;3.17;;
54679;SDS011;40578;53.178;5.846;2023-06-14T05:43:37;6.45;;;3.17;;
54679;SDS011;40578;53.178;5.846;2023-06-14T05:46:03;6.57;;;3.37;;
54679;SDS011;40578;53.178;5.846;2023-06-14T05:48:30;5.70;;;3.37;;
54679;SDS011;40578;53.178;5.846;2023-06-14T05:50:56;7.43;;;3.40;;
54679;SDS011;40578;53.178;5.846;2023-06-14T05:53:22;5.97;;;3.50;;
54679;SDS011;40578;53.178;5.846;2023-06-14T05:55:49;8.23;;;3.50;;
54679;SDS011;40578;53.178;5.846;2023-06-14T05:58:16;6.22;;;3.40;;
54679;SDS011;40578;53.178;5.846;2023-06-14T06:00:42;6.70;;;3.30;;
54679;SDS011;40578;53.178;5.846;2023-06-14T06:03:08;8.27;;;3.43;;
54679;SDS011;40578;53.178;5.846;2023-06-14T06:05:34;8.07;;;3.40;;
54679;SDS011;40578;53.178;5.846;2023-06-14T06:08:00;5.87;;;3.23;;
54679;SDS011;40578;53.178;5.846;2023-06-14T06:10:25;5.80;;;3.27;;
54679;SDS011;40578;53.178;5.846;2023-06-14T06:12:51;5.87;;;3.13;;
54679;SDS011;40578;53.178;5.846;2023-06-14T06:15:17;8.87;;;3.80;;
54679;SDS011;40578;53.178;5.846;2023-06-14T06:17:43;5.57;;;3.00;;
54679;SDS011;40578;53.178;5.846;2023-06-14T06:20:09;5.87;;;3.17;;
54679;SDS011;40578;53.178;5.846;2023-06-14T06:22:36;5.30;;;3.30;;
54679;SDS011;40578;53.178;5.846;2023-06-14T06:25:02;5.55;;;3.42;;
54679;SDS011;40578;53.178;5.846;2023-06-14T06:27:28;5.30;;;2.83;;
54679;SDS011;40578;53.178;5.846;2023-06-14T06:29:54;7.23;;;3.37;;
54679;SDS011;40578;53.178;5.846;2023-06-14T06:32:20;6.13;;;3.40;;
54679;SDS011;40578;53.178;5.846;2023-06-14T06:34:46;5.70;;;3.30;;
54679;SDS011;40578;53.178;5.846;2023-06-14T06:37:12;8.23;;;3.10;;
54679;SDS011;40578;53.178;5.846;2023-06-14T06:39:38;7.00;;;2.88;;
54679;SDS011;40578;53.178;5.846;2023-06-14T06:42:03;5.53;;;3.40;;
54679;SDS011;40578;53.178;5.846;2023-06-14T06:44:30;7.85;;;3.17;;
54679;SDS011;40578;53.178;5.846;2023-06-14T06:46:57;6.43;;;3.23;;
54679;SDS011;40578;53.178;5.846;2023-06-14T06:49:22;5.25;;;2.90;;
54679;SDS011;40578;53.178;5.846;2023-06-14T06:52:01;4.87;;;2.67;;
54679;SDS011;40578;53.178;5.846;2023-06-14T06:54:28;4.95;;;2.80;;
54679;SDS011;40578;53.178;5.846;2023-06-14T06:56:54;4.63;;;2.97;;
54679;SDS011;40578;53.178;5.846;2023-06-14T06:59:20;4.50;;;2.90;;
54679;SDS011;40578;53.178;5.846;2023-06-14T07:01:46;4.57;;;2.75;;
54679;SDS011;40578;53.178;5.846;2023-06-14T07:04:11;6.87;;;3.10;;
54679;SDS011;40578;53.178;5.846;2023-06-14T07:06:37;6.03;;;2.90;;
54679;SDS011;40578;53.178;5.846;2023-06-14T07:09:03;7.23;;;2.93;;
54679;SDS011;40578;53.178;5.846;2023-06-14T07:11:31;6.28;;;2.65;;
54679;SDS011;40578;53.178;5.846;2023-06-14T07:13:57;5.00;;;2.57;;
54679;SDS011;40578;53.178;5.846;2023-06-14T07:16:23;4.80;;;2.70;;
54679;SDS011;40578;53.178;5.846;2023-06-14T07:18:48;5.77;;;2.70;;
54679;SDS011;40578;53.178;5.846;2023-06-14T07:21:14;4.67;;;2.20;;
54679;SDS011;40578;53.178;5.846;2023-06-14T07:23:39;4.87;;;2.73;;
54679;SDS011;40578;53.178;5.846;2023-06-14T07:26:05;5.93;;;2.40;;
54679;SDS011;40578;53.178;5.846;2023-06-14T07:28:31;5.67;;;2.30;;
54679;SDS011;40578;53.178;5.846;2023-06-14T07:30:57;9.20;;;2.80;;
54679;SDS011;40578;53.178;5.846;2023-06-14T07:33:22;5.53;;;2.60;;
54679;SDS011;40578;53.178;5.846;2023-06-14T07:35:48;4.40;;;2.80;;
54679;SDS011;40578;53.178;5.846;2023-06-14T07:38:14;5.60;;;2.53;;
54679;SDS011;40578;53.178;5.846;2023-06-14T07:40:40;6.87;;;2.70;;
54679;SDS011;40578;53.178;5.846;2023-06-14T07:43:05;4.00;;;2.33;;
54679;SDS011;40578;53.178;5.846;2023-06-14T07:45:31;4.87;;;2.67;;
54679;SDS011;40578;53.178;5.846;2023-06-14T07:47:56;6.77;;;2.33;;
54679;SDS011;40578;53.178;5.846;2023-06-14T07:50:22;5.83;;;2.40;;
54679;SDS011;40578;53.178;5.846;2023-06-14T07:52:48;5.18;;;2.55;;
54679;SDS011;40578;53.178;5.846;2023-06-14T07:55:14;4.30;;;2.40;;
54679;SDS011;40578;53.178;5.846;2023-06-14T07:57:40;5.63;;;2.53;;
54679;SDS011;40578;53.178;5.846;2023-06-14T08:00:06;6.17;;;2.50;;
54679;SDS011;40578;53.178;5.846;2023-06-14T08:02:32;5.40;;;2.20;;
54679;SDS011;40578;53.178;5.846;2023-06-14T08:04:57;4.70;;;2.77;;
54679;SDS011;40578;53.178;5.846;2023-06-14T08:07:24;7.13;;;2.60;;
54679;SDS011;40578;53.178;5.846;2023-06-14T08:09:49;3.60;;;2.30;;
54679;SDS011;40578;53.178;5.846;2023-06-14T08:12:15;4.67;;;2.53;;
54679;SDS011;40578;53.178;5.846;2023-06-14T08:14:41;6.13;;;2.50;;
54679;SDS011;40578;53.178;5.846;2023-06-14T08:17:07;7.00;;;2.50;;
54679;SDS011;40578;53.178;5.846;2023-06-14T08:19:33;4.00;;;2.13;;
54679;SDS011;40578;53.178;5.846;2023-06-14T08:21:59;5.40;;;2.47;;
54679;SDS011;40578;53.178;5.846;2023-06-14T08:24:25;4.50;;;2.20;;
54679;SDS011;40578;53.178;5.846;2023-06-14T08:26:53;5.70;;;2.20;;
54679;SDS011;40578;53.178;5.846;2023-06-14T08:29:19;6.68;;;2.50;;
54679;SDS011;40578;53.178;5.846;2023-06-14T08:31:45;6.50;;;2.40;;
54679;SDS011;40578;53.178;5.846;2023-06-14T08:34:11;4.18;;;2.33;;
54679;SDS011;40578;53.178;5.846;2023-06-14T08:36:36;5.67;;;2.53;;
54679;SDS011;40578;53.178;5.846;2023-06-14T08:39:02;4.33;;;2.47;;
54679;SDS011;40578;53.178;5.846;2023-06-14T08:41:28;4.20;;;2.23;;
54679;SDS011;40578;53.178;5.846;2023-06-14T08:43:54;4.85;;;2.20;;
54679;SDS011;40578;53.178;5.846;2023-06-14T08:46:21;6.53;;;2.50;;
54679;SDS011;40578;53.178;5.846;2023-06-14T08:48:52;5.75;;;2.28;;
54679;SDS011;40578;53.178;5.846;2023-06-14T08:51:22;4.20;;;2.45;;
54679;SDS011;40578;53.178;5.846;2023-06-14T08:53:52;5.20;;;2.67;;
54679;SDS011;40578;53.178;5.846;2023-06-14T08:56:23;6.53;;;2.40;;
54679;SDS011;40578;53.178;5.846;2023-06-14T08:58:51;5.10;;;2.70;;
54679;SDS011;40578;53.178;5.846;2023-06-14T09:01:17;5.72;;;2.60;;
54679;SDS011;40578;53.178;5.846;2023-06-14T09:03:44;5.97;;;2.75;;
54679;SDS011;40578;53.178;5.846;2023-06-14T09:06:10;6.20;;;2.40;;
54679;SDS011;40578;53.178;5.846;2023-06-14T09:08:42;6.75;;;2.70;;
54679;SDS011;40578;53.178;5.846;2023-06-14T09:11:10;4.70;;;2.45;;
54679;SDS011;40578;53.178;5.846;2023-06-14T09:13:40;6.50;;;2.20;;
54679;SDS011;40578;53.178;5.846;2023-06-14T09:16:07;3.67;;;2.28;;
54679;SDS011;40578;53.178;5.846;2023-06-14T09:21:05;5.07;;;2.53;;
54679;SDS011;40578;53.178;5.846;2023-06-14T09:28:34;7.00;;;2.22;;
54679;SDS011;40578;53.178;5.846;2023-06-14T09:31:01;3.63;;;2.10;;
54679;SDS011;40578;53.178;5.846;2023-06-14T09:33:26;6.70;;;2.53;;
54679;SDS011;40578;53.178;5.846;2023-06-14T09:35:55;5.57;;;2.20;;
54679;SDS011;40578;53.178;5.846;2023-06-14T09:38:20;3.97;;;2.67;;
54679;SDS011;40578;53.178;5.846;2023-06-14T09:40:46;6.23;;;2.40;;
54679;SDS011;40578;53.178;5.846;2023-06-14T09:43:12;4.13;;;1.93;;
54679;SDS011;40578;53.178;5.846;2023-06-14T09:45:41;4.30;;;1.98;;
54679;SDS011;40578;53.178;5.846;2023-06-14T09:48:10;3.90;;;2.00;;
54679;SDS011;40578;53.178;5.846;2023-06-14T09:50:37;4.20;;;2.03;;
54679;SDS011;40578;53.178;5.846;2023-06-14T09:53:03;3.90;;;2.30;;
54679;SDS011;40578;53.178;5.846;2023-06-14T09:55:36;5.22;;;2.20;;
54679;SDS011;40578;53.178;5.846;2023-06-14T09:58:04;3.42;;;1.90;;
54679;SDS011;40578;53.178;5.846;2023-06-14T10:00:31;4.95;;;2.20;;
54679;SDS011;40578;53.178;5.846;2023-06-14T10:03:00;4.90;;;2.15;;
54679;SDS011;40578;53.178;5.846;2023-06-14T10:05:37;5.65;;;2.08;;
54679;SDS011;40578;53.178;5.846;2023-06-14T10:08:10;5.72;;;2.22;;
54679;SDS011;40578;53.178;5.846;2023-06-14T10:10:39;3.65;;;1.90;;
54679;SDS011;40578;53.178;5.846;2023-06-14T10:13:06;6.13;;;2.28;;
54679;SDS011;40578;53.178;5.846;2023-06-14T10:15:41;4.18;;;2.03;;
54679;SDS011;40578;53.178;5.846;2023-06-14T10:18:19;6.03;;;2.47;;
54679;SDS011;40578;53.178;5.846;2023-06-14T10:21:08;7.05;;;2.00;;
54679;SDS011;40578;53.178;5.846;2023-06-14T10:23:41;4.95;;;1.90;;
54679;SDS011;40578;53.178;5.846;2023-06-14T10:26:08;5.57;;;2.08;;
54679;SDS011;40578;53.178;5.846;2023-06-14T10:28:42;6.60;;;2.13;;
54679;SDS011;40578;53.178;5.846;2023-06-14T10:34:07;6.15;;;2.20;;
54679;SDS011;40578;53.178;5.846;2023-06-14T10:36:33;5.53;;;2.30;;
54679;SDS011;40578;53.178;5.846;2023-06-14T10:39:06;4.78;;;2.40;;
54679;SDS011;40578;53.178;5.846;2023-06-14T10:41:36;6.80;;;2.45;;
54679;SDS011;40578;53.178;5.846;2023-06-14T10:46:45;7.30;;;2.42;;
54679;SDS011;40578;53.178;5.846;2023-06-14T10:49:12;5.20;;;2.00;;
54679;SDS011;40578;53.178;5.846;2023-06-14T10:51:42;5.70;;;2.40;;
54679;SDS011;40578;53.178;5.846;2023-06-14T10:54:14;6.20;;;2.40;;
54679;SDS011;40578;53.178;5.846;2023-06-14T10:59:13;4.68;;;2.25;;
54679;SDS011;40578;53.178;5.846;2023-06-14T11:04:11;4.18;;;2.30;;
54679;SDS011;40578;53.178;5.846;2023-06-14T11:06:47;5.07;;;2.13;;
54679;SDS011;40578;53.178;5.846;2023-06-14T11:11:57;4.57;;;2.25;;
54679;SDS011;40578;53.178;5.846;2023-06-14T11:14:24;4.70;;;2.00;;
54679;SDS011;40578;53.178;5.846;2023-06-14T11:16:50;5.40;;;2.23;;
54679;SDS011;40578;53.178;5.846;2023-06-14T11:19:16;4.95;;;2.40;;
54679;SDS011;40578;53.178;5.846;2023-06-14T11:21:46;7.25;;;3.00;;
54679;SDS011;40578;53.178;5.846;2023-06-14T11:24:16;9.27;;;2.35;;
54679;SDS011;40578;53.178;5.846;2023-06-14T11:26:42;5.82;;;2.33;;
54679;SDS011;40578;53.178;5.846;2023-06-14T11:29:08;6.93;;;2.40;;
54679;SDS011;40578;53.178;5.846;2023-06-14T11:31:33;5.57;;;2.37;;
54679;SDS011;40578;53.178;5.846;2023-06-14T11:33:59;4.53;;;2.38;;
54679;SDS011;40578;53.178;5.846;2023-06-14T11:36:33;4.60;;;2.20;;
54679;SDS011;40578;53.178;5.846;2023-06-14T11:38:59;5.55;;;2.15;;
54679;SDS011;40578;53.178;5.846;2023-06-14T11:41:25;4.18;;;2.30;;
54679;SDS011;40578;53.178;5.846;2023-06-14T11:43:56;4.60;;;2.10;;
54679;SDS011;40578;53.178;5.846;2023-06-14T11:46:23;4.72;;;2.17;;
54679;SDS011;40578;53.178;5.846;2023-06-14T11:48:51;6.65;;;2.50;;
54679;SDS011;40578;53.178;5.846;2023-06-14T11:51:17;3.88;;;2.22;;
54679;SDS011;40578;53.178;5.846;2023-06-14T11:53:44;4.00;;;2.40;;
54679;SDS011;40578;53.178;5.846;2023-06-14T11:56:10;3.35;;;2.05;;
54679;SDS011;40578;53.178;5.846;2023-06-14T11:58:36;5.22;;;2.50;;
54679;SDS011;40578;53.178;5.846;2023-06-14T12:01:05;3.78;;;2.33;;
54679;SDS011;40578;53.178;5.846;2023-06-14T12:03:31;5.88;;;2.30;;
54679;SDS011;40578;53.178;5.846;2023-06-14T12:06:06;4.68;;;2.13;;
54679;SDS011;40578;53.178;5.846;2023-06-14T12:08:33;4.13;;;2.17;;
54679;SDS011;40578;53.178;5.846;2023-06-14T12:11:06;3.42;;;1.98;;
54679;SDS011;40578;53.178;5.846;2023-06-14T12:13:42;5.45;;;2.00;;
54679;SDS011;40578;53.178;5.846;2023-06-14T12:16:08;4.85;;;2.28;;
54679;SDS011;40578;53.178;5.846;2023-06-14T12:18:35;3.47;;;2.08;;
54679;SDS011;40578;53.178;5.846;2023-06-14T12:21:05;6.80;;;2.78;;
54679;SDS011;40578;53.178;5.846;2023-06-14T12:24:05;6.35;;;2.45;;
54679;SDS011;40578;53.178;5.846;2023-06-14T12:26:24;5.57;;;2.00;;
54679;SDS011;40578;53.178;5.846;2023-06-14T12:28:51;4.47;;;1.85;;
54679;SDS011;40578;53.178;5.846;2023-06-14T12:31:17;4.80;;;2.10;;
54679;SDS011;40578;53.178;5.846;2023-06-14T12:33:44;5.93;;;2.22;;
54679;SDS011;40578;53.178;5.846;2023-06-14T12:36:13;5.80;;;2.03;;
54679;SDS011;40578;53.178;5.846;2023-06-14T12:38:40;7.82;;;1.90;;
54679;SDS011;40578;53.178;5.846;2023-06-14T12:41:06;3.38;;;1.98;;
54679;SDS011;40578;53.178;5.846;2023-06-14T12:43:32;3.65;;;2.10;;
54679;SDS011;40578;53.178;5.846;2023-06-14T12:45:58;4.95;;;2.00;;
54679;SDS011;40578;53.178;5.846;2023-06-14T12:48:24;3.33;;;1.90;;
54679;SDS011;40578;53.178;5.846;2023-06-14T12:50:52;3.25;;;2.00;;
54679;SDS011;40578;53.178;5.846;2023-06-14T12:53:18;5.43;;;2.00;;
54679;SDS011;40578;53.178;5.846;2023-06-14T12:55:44;2.88;;;1.80;;
54679;SDS011;40578;53.178;5.846;2023-06-14T12:58:10;6.00;;;2.10;;
54679;SDS011;40578;53.178;5.846;2023-06-14T13:00:37;5.35;;;1.95;;
54679;SDS011;40578;53.178;5.846;2023-06-14T13:03:03;5.07;;;2.00;;
54679;SDS011;40578;53.178;5.846;2023-06-14T13:05:29;4.60;;;1.90;;
54679;SDS011;40578;53.178;5.846;2023-06-14T13:07:56;2.67;;;2.00;;
54679;SDS011;40578;53.178;5.846;2023-06-14T13:10:22;5.40;;;2.10;;
54679;SDS011;40578;53.178;5.846;2023-06-14T13:12:47;3.53;;;1.40;;
54679;SDS011;40578;53.178;5.846;2023-06-14T13:15:13;2.70;;;1.83;;
54679;SDS011;40578;53.178;5.846;2023-06-14T13:17:39;4.05;;;2.55;;
54679;SDS011;40578;53.178;5.846;2023-06-14T13:20:05;8.45;;;3.00;;
54679;SDS011;40578;53.178;5.846;2023-06-14T13:22:32;7.97;;;3.10;;
54679;SDS011;40578;53.178;5.846;2023-06-14T13:24:58;6.95;;;2.70;;
54679;SDS011;40578;53.178;5.846;2023-06-14T13:27:23;9.47;;;2.83;;
54679;SDS011;40578;53.178;5.846;2023-06-14T13:29:50;5.45;;;2.70;;
54679;SDS011;40578;53.178;5.846;2023-06-14T13:32:16;5.47;;;3.13;;
54679;SDS011;40578;53.178;5.846;2023-06-14T13:34:41;4.70;;;2.75;;
54679;SDS011;40578;53.178;5.846;2023-06-14T13:37:07;5.90;;;2.63;;
54679;SDS011;40578;53.178;5.846;2023-06-14T13:39:33;7.13;;;2.40;;
54679;SDS011;40578;53.178;5.846;2023-06-14T13:41:58;4.93;;;2.90;;
54679;SDS011;40578;53.178;5.846;2023-06-14T13:44:24;4.18;;;2.50;;
54679;SDS011;40578;53.178;5.846;2023-06-14T13:46:50;6.47;;;2.70;;
54679;SDS011;40578;53.178;5.846;2023-06-14T13:49:15;8.60;;;3.13;;
54679;SDS011;40578;53.178;5.846;2023-06-14T13:54:08;5.15;;;2.83;;
54679;SDS011;40578;53.178;5.846;2023-06-14T13:56:33;7.80;;;3.10;;
54679;SDS011;40578;53.178;5.846;2023-06-14T13:58:59;5.13;;;2.60;;
54679;SDS011;40578;53.178;5.846;2023-06-14T14:01:25;8.40;;;3.05;;
54679;SDS011;40578;53.178;5.846;2023-06-14T14:03:51;9.35;;;3.03;;
54679;SDS011;40578;53.178;5.846;2023-06-14T14:06:17;5.60;;;2.63;;
54679;SDS011;40578;53.178;5.846;2023-06-14T14:08:43;8.88;;;2.67;;
54679;SDS011;40578;53.178;5.846;2023-06-14T14:11:09;5.72;;;2.47;;
54679;SDS011;40578;53.178;5.846;2023-06-14T14:13:35;8.98;;;2.80;;
54679;SDS011;40578;53.178;5.846;2023-06-14T14:18:28;4.72;;;2.95;;
54679;SDS011;40578;53.178;5.846;2023-06-14T14:20:54;6.30;;;2.90;;
54679;SDS011;40578;53.178;5.846;2023-06-14T14:23:21;5.13;;;2.63;;
54679;SDS011;40578;53.178;5.846;2023-06-14T14:25:46;6.72;;;2.63;;
54679;SDS011;40578;53.178;5.846;2023-06-14T14:28:12;7.35;;;3.03;;
54679;SDS011;40578;53.178;5.846;2023-06-14T14:30:41;4.65;;;2.72;;
54679;SDS011;40578;53.178;5.846;2023-06-14T14:33:07;7.38;;;2.95;;
54679;SDS011;40578;53.178;5.846;2023-06-14T14:35:35;9.15;;;3.10;;
54679;SDS011;40578;53.178;5.846;2023-06-14T14:38:01;5.60;;;2.77;;
54679;SDS011;40578;53.178;5.846;2023-06-14T14:40:28;9.00;;;2.75;;
54679;SDS011;40578;53.178;5.846;2023-06-14T14:42:54;9.63;;;3.28;;
54679;SDS011;40578;53.178;5.846;2023-06-14T14:45:20;8.70;;;3.03;;
54679;SDS011;40578;53.178;5.846;2023-06-14T14:47:46;6.95;;;2.35;;
54679;SDS011;40578;53.178;5.846;2023-06-14T14:50:11;5.63;;;2.70;;
54679;SDS011;40578;53.178;5.846;2023-06-14T14:52:37;7.35;;;2.70;;
54679;SDS011;40578;53.178;5.846;2023-06-14T14:55:03;8.43;;;2.90;;
54679;SDS011;40578;53.178;5.846;2023-06-14T14:57:29;8.13;;;2.92;;
54679;SDS011;40578;53.178;5.846;2023-06-14T14:59:56;5.43;;;3.13;;
54679;SDS011;40578;53.178;5.846;2023-06-14T15:02:22;8.18;;;3.30;;
54679;SDS011;40578;53.178;5.846;2023-06-14T15:04:49;6.40;;;2.65;;
54679;SDS011;40578;53.178;5.846;2023-06-14T15:07:14;7.05;;;3.15;;
54679;SDS011;40578;53.178;5.846;2023-06-14T15:09:40;7.03;;;3.07;;
54679;SDS011;40578;53.178;5.846;2023-06-14T15:12:06;7.05;;;3.40;;
54679;SDS011;40578;53.178;5.846;2023-06-14T15:14:32;7.55;;;3.03;;
54679;SDS011;40578;53.178;5.846;2023-06-14T15:16:58;7.53;;;2.77;;